sensor_id;sensor_type;location;lat;lon;timestamp;P1;durP1;ratioP1;P2;durP2;ratioP2
49392;SDS011;35268;42.642;23.308;2024-03-23T00:53:10;27.00;;;9.43;;
49392;SDS011;35268;42.642;23.308;2024-03-23T00:55:36;35.20;;;11.05;;
49392;SDS011;35268;42.642;23.308;2024-03-23T00:58:01;62.97;;;19.92;;
49392;SDS011;35268;42.642;23.308;2024-03-23T01:00:27;61.92;;;18.63;;
49392;SDS011;35268;42.642;23.308;2024-03-23T01:02:52;54.63;;;18.92;;
49392;SDS011;35268;42.642;23.308;2024-03-23T01:05:18;52.97;;;17.45;;
49392;SDS011;35268;42.642;23.308;2024-03-23T01:07:44;45.60;;;15.77;;
49392;SDS011;35268;42.642;23.308;2024-03-23T01:10:09;59.30;;;15.57;;
49392;SDS011;35268;42.642;23.308;2024-03-23T01:12:34;48.85;;;15.65;;
49392;SDS011;35268;42.642;23.308;2024-03-23T01:15:00;44.75;;;13.93;;
49392;SDS011;35268;42.642;23.308;2024-03-23T01:17:25;37.67;;;12.05;;
49392;SDS011;35268;42.642;23.308;2024-03-23T01:19:51;31.40;;;13.18;;
49392;SDS011;35268;42.642;23.308;2024-03-23T01:22:16;44.42;;;16.00;;
49392;SDS011;35268;42.642;23.308;2024-03-23T01:24:41;42.97;;;16.13;;
49392;SDS011;35268;42.642;23.308;2024-03-23T01:27:08;42.03;;;16.60;;
49392;SDS011;35268;42.642;23.308;2024-03-23T01:29:33;30.70;;;12.38;;
49392;SDS011;35268;42.642;23.308;2024-03-23T01:31:59;35.50;;;14.82;;
49392;SDS011;35268;42.642;23.308;2024-03-23T01:34:24;37.65;;;13.23;;
49392;SDS011;35268;42.642;23.308;2024-03-23T01:36:50;32.33;;;12.38;;
49392;SDS011;35268;42.642;23.308;2024-03-23T01:39:16;32.53;;;12.85;;
49392;SDS011;35268;42.642;23.308;2024-03-23T01:41:41;30.27;;;12.43;;
49392;SDS011;35268;42.642;23.308;2024-03-23T01:44:08;30.05;;;11.15;;
49392;SDS011;35268;42.642;23.308;2024-03-23T01:46:39;22.92;;;10.32;;
49392;SDS011;35268;42.642;23.308;2024-03-23T01:49:06;24.13;;;11.15;;
49392;SDS011;35268;42.642;23.308;2024-03-23T01:51:32;16.75;;;7.95;;
49392;SDS011;35268;42.642;23.308;2024-03-23T01:53:59;20.40;;;8.80;;
49392;SDS011;35268;42.642;23.308;2024-03-23T01:56:28;13.52;;;6.32;;
49392;SDS011;35268;42.642;23.308;2024-03-23T01:59:03;12.32;;;5.93;;
49392;SDS011;35268;42.642;23.308;2024-03-23T02:01:29;14.75;;;6.75;;
49392;SDS011;35268;42.642;23.308;2024-03-23T02:03:55;19.52;;;6.80;;
49392;SDS011;35268;42.642;23.308;2024-03-23T02:06:21;14.38;;;6.20;;
49392;SDS011;35268;42.642;23.308;2024-03-23T02:08:47;16.42;;;6.80;;
49392;SDS011;35268;42.642;23.308;2024-03-23T02:11:13;14.05;;;6.68;;
49392;SDS011;35268;42.642;23.308;2024-03-23T02:13:38;11.85;;;5.97;;
49392;SDS011;35268;42.642;23.308;2024-03-23T02:16:04;13.25;;;5.20;;
49392;SDS011;35268;42.642;23.308;2024-03-23T02:18:30;10.20;;;5.30;;
49392;SDS011;35268;42.642;23.308;2024-03-23T02:20:56;16.17;;;6.13;;
49392;SDS011;35268;42.642;23.308;2024-03-23T02:23:21;12.10;;;5.57;;
49392;SDS011;35268;42.642;23.308;2024-03-23T02:25:47;12.27;;;5.90;;
49392;SDS011;35268;42.642;23.308;2024-03-23T02:28:12;15.25;;;6.03;;
49392;SDS011;35268;42.642;23.308;2024-03-23T02:30:38;26.30;;;7.53;;
49392;SDS011;35268;42.642;23.308;2024-03-23T02:33:03;16.60;;;7.93;;
49392;SDS011;35268;42.642;23.308;2024-03-23T02:35:29;13.15;;;6.15;;
49392;SDS011;35268;42.642;23.308;2024-03-23T02:37:54;13.45;;;5.93;;
49392;SDS011;35268;42.642;23.308;2024-03-23T02:40:22;16.30;;;6.03;;
49392;SDS011;35268;42.642;23.308;2024-03-23T02:42:48;15.23;;;7.70;;
49392;SDS011;35268;42.642;23.308;2024-03-23T02:45:14;13.98;;;6.13;;
49392;SDS011;35268;42.642;23.308;2024-03-23T02:47:39;14.65;;;7.05;;
49392;SDS011;35268;42.642;23.308;2024-03-23T02:50:05;15.18;;;7.50;;
49392;SDS011;35268;42.642;23.308;2024-03-23T02:52:31;14.20;;;6.53;;
49392;SDS011;35268;42.642;23.308;2024-03-23T02:54:56;17.52;;;6.07;;
49392;SDS011;35268;42.642;23.308;2024-03-23T02:57:22;14.50;;;5.78;;
49392;SDS011;35268;42.642;23.308;2024-03-23T02:59:48;16.23;;;6.88;;
49392;SDS011;35268;42.642;23.308;2024-03-23T03:02:14;14.68;;;6.18;;
49392;SDS011;35268;42.642;23.308;2024-03-23T03:04:40;10.98;;;5.85;;
49392;SDS011;35268;42.642;23.308;2024-03-23T03:07:05;12.18;;;5.53;;
49392;SDS011;35268;42.642;23.308;2024-03-23T03:09:31;12.13;;;5.30;;
49392;SDS011;35268;42.642;23.308;2024-03-23T03:11:56;13.48;;;5.63;;
49392;SDS011;35268;42.642;23.308;2024-03-23T03:14:22;15.32;;;6.38;;
49392;SDS011;35268;42.642;23.308;2024-03-23T03:16:47;12.93;;;5.47;;
49392;SDS011;35268;42.642;23.308;2024-03-23T03:19:13;12.93;;;5.93;;
49392;SDS011;35268;42.642;23.308;2024-03-23T03:21:38;12.80;;;6.70;;
49392;SDS011;35268;42.642;23.308;2024-03-23T03:24:05;12.50;;;6.05;;
49392;SDS011;35268;42.642;23.308;2024-03-23T03:26:31;13.75;;;6.78;;
49392;SDS011;35268;42.642;23.308;2024-03-23T03:28:57;13.20;;;5.45;;
49392;SDS011;35268;42.642;23.308;2024-03-23T03:31:22;12.27;;;6.10;;
49392;SDS011;35268;42.642;23.308;2024-03-23T03:33:49;9.25;;;5.22;;
49392;SDS011;35268;42.642;23.308;2024-03-23T03:36:15;14.65;;;5.68;;
49392;SDS011;35268;42.642;23.308;2024-03-23T03:38:40;11.75;;;6.50;;
49392;SDS011;35268;42.642;23.308;2024-03-23T03:41:06;18.88;;;6.95;;
49392;SDS011;35268;42.642;23.308;2024-03-23T03:43:31;15.13;;;6.53;;
49392;SDS011;35268;42.642;23.308;2024-03-23T03:45:59;11.02;;;5.82;;
49392;SDS011;35268;42.642;23.308;2024-03-23T03:48:25;14.07;;;6.53;;
49392;SDS011;35268;42.642;23.308;2024-03-23T03:50:51;14.30;;;6.57;;
49392;SDS011;35268;42.642;23.308;2024-03-23T03:53:17;15.60;;;6.47;;
49392;SDS011;35268;42.642;23.308;2024-03-23T03:55:43;17.25;;;7.05;;
49392;SDS011;35268;42.642;23.308;2024-03-23T03:58:08;17.95;;;7.05;;
49392;SDS011;35268;42.642;23.308;2024-03-23T04:00:33;13.80;;;7.32;;
49392;SDS011;35268;42.642;23.308;2024-03-23T04:02:59;11.93;;;6.15;;
49392;SDS011;35268;42.642;23.308;2024-03-23T04:05:24;16.38;;;6.45;;
49392;SDS011;35268;42.642;23.308;2024-03-23T04:07:49;15.00;;;7.00;;
49392;SDS011;35268;42.642;23.308;2024-03-23T04:10:15;13.20;;;6.97;;
49392;SDS011;35268;42.642;23.308;2024-03-23T04:12:41;13.90;;;7.40;;
49392;SDS011;35268;42.642;23.308;2024-03-23T04:15:07;13.65;;;6.57;;
49392;SDS011;35268;42.642;23.308;2024-03-23T04:17:33;17.30;;;7.20;;
49392;SDS011;35268;42.642;23.308;2024-03-23T04:19:59;18.92;;;7.00;;
49392;SDS011;35268;42.642;23.308;2024-03-23T04:22:26;14.32;;;6.90;;
49392;SDS011;35268;42.642;23.308;2024-03-23T04:24:55;15.07;;;7.07;;
49392;SDS011;35268;42.642;23.308;2024-03-23T04:27:21;15.68;;;7.25;;
49392;SDS011;35268;42.642;23.308;2024-03-23T04:29:48;20.25;;;8.38;;
49392;SDS011;35268;42.642;23.308;2024-03-23T04:32:14;24.65;;;8.63;;
49392;SDS011;35268;42.642;23.308;2024-03-23T04:34:39;23.55;;;7.95;;
49392;SDS011;35268;42.642;23.308;2024-03-23T04:37:05;18.38;;;8.00;;
49392;SDS011;35268;42.642;23.308;2024-03-23T04:39:30;19.83;;;8.30;;
49392;SDS011;35268;42.642;23.308;2024-03-23T04:41:56;18.38;;;8.55;;
49392;SDS011;35268;42.642;23.308;2024-03-23T04:44:21;17.95;;;8.63;;
49392;SDS011;35268;42.642;23.308;2024-03-23T04:46:46;21.73;;;9.68;;
49392;SDS011;35268;42.642;23.308;2024-03-23T04:49:12;22.00;;;8.68;;
49392;SDS011;35268;42.642;23.308;2024-03-23T04:51:37;17.60;;;8.43;;
49392;SDS011;35268;42.642;23.308;2024-03-23T04:54:03;17.23;;;9.25;;
49392;SDS011;35268;42.642;23.308;2024-03-23T04:56:29;20.45;;;8.38;;
49392;SDS011;35268;42.642;23.308;2024-03-23T04:58:56;18.75;;;8.20;;
49392;SDS011;35268;42.642;23.308;2024-03-23T05:01:26;16.95;;;8.15;;
49392;SDS011;35268;42.642;23.308;2024-03-23T05:03:51;21.85;;;7.65;;
49392;SDS011;35268;42.642;23.308;2024-03-23T05:06:18;20.98;;;9.05;;
49392;SDS011;35268;42.642;23.308;2024-03-23T05:08:43;20.40;;;8.82;;
49392;SDS011;35268;42.642;23.308;2024-03-23T05:11:09;18.77;;;9.55;;
49392;SDS011;35268;42.642;23.308;2024-03-23T05:13:35;20.80;;;8.68;;
49392;SDS011;35268;42.642;23.308;2024-03-23T05:16:00;17.92;;;7.65;;
49392;SDS011;35268;42.642;23.308;2024-03-23T05:18:26;17.27;;;8.52;;
49392;SDS011;35268;42.642;23.308;2024-03-23T05:20:56;22.83;;;8.07;;
49392;SDS011;35268;42.642;23.308;2024-03-23T05:23:23;19.23;;;8.77;;
49392;SDS011;35268;42.642;23.308;2024-03-23T05:25:49;19.55;;;8.68;;
49392;SDS011;35268;42.642;23.308;2024-03-23T05:28:14;15.70;;;8.18;;
49392;SDS011;35268;42.642;23.308;2024-03-23T05:30:39;16.85;;;9.15;;
49392;SDS011;35268;42.642;23.308;2024-03-23T05:33:05;17.95;;;9.18;;
49392;SDS011;35268;42.642;23.308;2024-03-23T05:35:31;30.73;;;8.77;;
49392;SDS011;35268;42.642;23.308;2024-03-23T05:37:57;19.98;;;10.20;;
49392;SDS011;35268;42.642;23.308;2024-03-23T05:40:23;27.90;;;9.32;;
49392;SDS011;35268;42.642;23.308;2024-03-23T05:42:49;26.70;;;11.40;;
49392;SDS011;35268;42.642;23.308;2024-03-23T05:45:18;24.48;;;11.10;;
49392;SDS011;35268;42.642;23.308;2024-03-23T05:47:44;27.42;;;11.40;;
49392;SDS011;35268;42.642;23.308;2024-03-23T05:50:09;34.53;;;10.70;;
49392;SDS011;35268;42.642;23.308;2024-03-23T05:52:37;26.00;;;11.45;;
49392;SDS011;35268;42.642;23.308;2024-03-23T05:55:03;22.08;;;10.35;;
49392;SDS011;35268;42.642;23.308;2024-03-23T05:57:29;26.05;;;10.50;;
49392;SDS011;35268;42.642;23.308;2024-03-23T05:59:55;28.80;;;12.90;;
49392;SDS011;35268;42.642;23.308;2024-03-23T06:02:20;27.70;;;11.80;;
49392;SDS011;35268;42.642;23.308;2024-03-23T06:04:46;30.02;;;11.73;;
49392;SDS011;35268;42.642;23.308;2024-03-23T06:07:11;25.15;;;10.68;;
49392;SDS011;35268;42.642;23.308;2024-03-23T06:09:39;24.20;;;9.77;;
49392;SDS011;35268;42.642;23.308;2024-03-23T06:12:05;21.38;;;10.60;;
49392;SDS011;35268;42.642;23.308;2024-03-23T06:14:30;42.22;;;12.00;;
49392;SDS011;35268;42.642;23.308;2024-03-23T06:16:56;28.50;;;11.18;;
49392;SDS011;35268;42.642;23.308;2024-03-23T06:19:21;28.92;;;12.77;;
49392;SDS011;35268;42.642;23.308;2024-03-23T06:21:47;35.53;;;11.70;;
49392;SDS011;35268;42.642;23.308;2024-03-23T06:24:12;23.63;;;11.95;;
49392;SDS011;35268;42.642;23.308;2024-03-23T06:26:38;27.05;;;11.93;;
49392;SDS011;35268;42.642;23.308;2024-03-23T06:29:03;20.88;;;11.35;;
49392;SDS011;35268;42.642;23.308;2024-03-23T06:31:30;25.23;;;11.70;;
49392;SDS011;35268;42.642;23.308;2024-03-23T06:33:55;25.02;;;10.38;;
49392;SDS011;35268;42.642;23.308;2024-03-23T06:36:21;23.17;;;11.35;;
49392;SDS011;35268;42.642;23.308;2024-03-23T06:38:46;22.98;;;10.88;;
49392;SDS011;35268;42.642;23.308;2024-03-23T06:41:12;22.88;;;10.43;;
49392;SDS011;35268;42.642;23.308;2024-03-23T06:43:37;24.13;;;9.38;;
49392;SDS011;35268;42.642;23.308;2024-03-23T06:46:03;20.42;;;9.73;;
49392;SDS011;35268;42.642;23.308;2024-03-23T06:48:31;31.25;;;13.15;;
49392;SDS011;35268;42.642;23.308;2024-03-23T06:50:57;21.38;;;11.07;;
49392;SDS011;35268;42.642;23.308;2024-03-23T06:53:23;25.13;;;8.93;;
49392;SDS011;35268;42.642;23.308;2024-03-23T06:55:54;28.38;;;11.15;;
49392;SDS011;35268;42.642;23.308;2024-03-23T06:58:21;27.25;;;10.00;;
49392;SDS011;35268;42.642;23.308;2024-03-23T07:00:47;25.67;;;10.77;;
49392;SDS011;35268;42.642;23.308;2024-03-23T07:03:13;31.85;;;11.50;;
49392;SDS011;35268;42.642;23.308;2024-03-23T07:05:38;28.60;;;9.98;;
49392;SDS011;35268;42.642;23.308;2024-03-23T07:08:04;26.20;;;9.35;;
49392;SDS011;35268;42.642;23.308;2024-03-23T07:10:30;29.75;;;10.45;;
49392;SDS011;35268;42.642;23.308;2024-03-23T07:12:55;21.08;;;10.15;;
49392;SDS011;35268;42.642;23.308;2024-03-23T07:15:21;21.67;;;8.82;;
49392;SDS011;35268;42.642;23.308;2024-03-23T07:17:47;17.75;;;9.55;;
49392;SDS011;35268;42.642;23.308;2024-03-23T07:20:13;19.33;;;9.73;;
49392;SDS011;35268;42.642;23.308;2024-03-23T07:22:39;22.75;;;10.32;;
49392;SDS011;35268;42.642;23.308;2024-03-23T07:25:05;30.42;;;11.35;;
49392;SDS011;35268;42.642;23.308;2024-03-23T07:27:31;24.35;;;9.63;;
49392;SDS011;35268;42.642;23.308;2024-03-23T07:29:57;18.70;;;10.25;;
49392;SDS011;35268;42.642;23.308;2024-03-23T07:32:22;24.00;;;10.30;;
49392;SDS011;35268;42.642;23.308;2024-03-23T07:34:48;23.48;;;10.45;;
49392;SDS011;35268;42.642;23.308;2024-03-23T07:37:13;32.88;;;10.98;;
49392;SDS011;35268;42.642;23.308;2024-03-23T07:39:41;19.38;;;10.90;;
49392;SDS011;35268;42.642;23.308;2024-03-23T07:42:07;17.50;;;9.15;;
49392;SDS011;35268;42.642;23.308;2024-03-23T07:44:33;21.42;;;9.68;;
49392;SDS011;35268;42.642;23.308;2024-03-23T07:46:58;27.08;;;10.77;;
49392;SDS011;35268;42.642;23.308;2024-03-23T07:49:25;21.90;;;10.32;;
49392;SDS011;35268;42.642;23.308;2024-03-23T07:51:51;20.85;;;10.23;;
49392;SDS011;35268;42.642;23.308;2024-03-23T07:54:16;17.77;;;9.43;;
49392;SDS011;35268;42.642;23.308;2024-03-23T07:56:42;22.83;;;10.15;;
49392;SDS011;35268;42.642;23.308;2024-03-23T07:59:07;18.33;;;8.65;;
49392;SDS011;35268;42.642;23.308;2024-03-23T08:01:32;20.02;;;9.40;;
49392;SDS011;35268;42.642;23.308;2024-03-23T08:03:58;18.33;;;9.27;;
49392;SDS011;35268;42.642;23.308;2024-03-23T08:06:23;20.45;;;8.85;;
49392;SDS011;35268;42.642;23.308;2024-03-23T08:08:51;27.05;;;9.30;;
49392;SDS011;35268;42.642;23.308;2024-03-23T08:11:27;22.92;;;9.77;;
49392;SDS011;35268;42.642;23.308;2024-03-23T08:13:57;26.85;;;9.45;;
49392;SDS011;35268;42.642;23.308;2024-03-23T08:16:23;17.45;;;9.13;;
49392;SDS011;35268;42.642;23.308;2024-03-23T08:18:50;17.63;;;9.32;;
49392;SDS011;35268;42.642;23.308;2024-03-23T08:21:16;26.17;;;8.57;;
49392;SDS011;35268;42.642;23.308;2024-03-23T08:23:43;22.80;;;9.00;;
49392;SDS011;35268;42.642;23.308;2024-03-23T08:26:09;25.88;;;9.68;;
49392;SDS011;35268;42.642;23.308;2024-03-23T08:28:36;42.67;;;10.25;;
49392;SDS011;35268;42.642;23.308;2024-03-23T08:31:06;24.00;;;10.25;;
49392;SDS011;35268;42.642;23.308;2024-03-23T08:33:33;26.90;;;9.98;;
49392;SDS011;35268;42.642;23.308;2024-03-23T08:35:59;24.08;;;10.30;;
49392;SDS011;35268;42.642;23.308;2024-03-23T08:38:26;17.55;;;9.60;;
49392;SDS011;35268;42.642;23.308;2024-03-23T08:43:41;21.20;;;9.40;;
49392;SDS011;35268;42.642;23.308;2024-03-23T08:46:10;21.05;;;9.63;;
49392;SDS011;35268;42.642;23.308;2024-03-23T08:48:38;25.20;;;9.90;;
49392;SDS011;35268;42.642;23.308;2024-03-23T08:51:04;19.45;;;9.48;;
49392;SDS011;35268;42.642;23.308;2024-03-23T08:53:31;25.77;;;8.57;;
49392;SDS011;35268;42.642;23.308;2024-03-23T08:55:57;21.33;;;8.20;;
49392;SDS011;35268;42.642;23.308;2024-03-23T08:58:24;22.10;;;8.75;;
49392;SDS011;35268;42.642;23.308;2024-03-23T09:00:53;21.02;;;9.15;;
49392;SDS011;35268;42.642;23.308;2024-03-23T09:03:23;20.35;;;8.75;;
49392;SDS011;35268;42.642;23.308;2024-03-23T09:05:51;22.88;;;9.32;;
49392;SDS011;35268;42.642;23.308;2024-03-23T09:08:17;24.98;;;8.57;;
49392;SDS011;35268;42.642;23.308;2024-03-23T09:10:43;18.70;;;7.80;;
49392;SDS011;35268;42.642;23.308;2024-03-23T09:13:09;24.02;;;8.98;;
49392;SDS011;35268;42.642;23.308;2024-03-23T09:15:34;25.40;;;7.45;;
49392;SDS011;35268;42.642;23.308;2024-03-23T09:18:01;20.17;;;8.18;;
49392;SDS011;35268;42.642;23.308;2024-03-23T09:20:27;31.33;;;8.85;;
49392;SDS011;35268;42.642;23.308;2024-03-23T09:22:52;22.30;;;8.88;;
49392;SDS011;35268;42.642;23.308;2024-03-23T09:25:17;21.00;;;7.85;;
49392;SDS011;35268;42.642;23.308;2024-03-23T09:27:44;19.95;;;8.15;;
49392;SDS011;35268;42.642;23.308;2024-03-23T09:30:11;16.88;;;7.28;;
49392;SDS011;35268;42.642;23.308;2024-03-23T09:32:37;15.95;;;8.55;;
49392;SDS011;35268;42.642;23.308;2024-03-23T09:35:02;15.82;;;6.80;;
49392;SDS011;35268;42.642;23.308;2024-03-23T09:37:28;21.35;;;8.40;;
49392;SDS011;35268;42.642;23.308;2024-03-23T09:39:53;19.30;;;8.93;;
49392;SDS011;35268;42.642;23.308;2024-03-23T09:42:19;16.17;;;7.47;;
49392;SDS011;35268;42.642;23.308;2024-03-23T09:44:44;19.65;;;7.60;;
49392;SDS011;35268;42.642;23.308;2024-03-23T09:47:10;16.88;;;6.50;;
49392;SDS011;35268;42.642;23.308;2024-03-23T09:49:35;24.95;;;7.72;;
49392;SDS011;35268;42.642;23.308;2024-03-23T09:52:02;13.77;;;7.35;;
49392;SDS011;35268;42.642;23.308;2024-03-23T09:54:28;15.82;;;7.63;;
49392;SDS011;35268;42.642;23.308;2024-03-23T09:56:53;18.23;;;7.10;;
49392;SDS011;35268;42.642;23.308;2024-03-23T09:59:18;21.80;;;7.82;;
49392;SDS011;35268;42.642;23.308;2024-03-23T10:01:44;15.70;;;7.22;;
49392;SDS011;35268;42.642;23.308;2024-03-23T10:04:09;15.27;;;6.97;;
49392;SDS011;35268;42.642;23.308;2024-03-23T10:06:35;17.92;;;7.22;;
49392;SDS011;35268;42.642;23.308;2024-03-23T10:09:01;17.88;;;7.15;;
49392;SDS011;35268;42.642;23.308;2024-03-23T10:11:27;15.07;;;7.00;;
49392;SDS011;35268;42.642;23.308;2024-03-23T10:13:54;17.50;;;7.32;;
49392;SDS011;35268;42.642;23.308;2024-03-23T10:16:22;18.90;;;8.52;;
49392;SDS011;35268;42.642;23.308;2024-03-23T10:18:48;12.32;;;7.15;;
49392;SDS011;35268;42.642;23.308;2024-03-23T10:21:14;21.73;;;7.60;;
49392;SDS011;35268;42.642;23.308;2024-03-23T10:23:41;17.23;;;7.50;;
49392;SDS011;35268;42.642;23.308;2024-03-23T10:26:17;15.32;;;6.28;;
49392;SDS011;35268;42.642;23.308;2024-03-23T10:28:53;18.95;;;7.22;;
49392;SDS011;35268;42.642;23.308;2024-03-23T10:31:30;16.50;;;6.88;;
49392;SDS011;35268;42.642;23.308;2024-03-23T10:33:56;24.83;;;7.15;;
49392;SDS011;35268;42.642;23.308;2024-03-23T10:36:22;14.80;;;6.70;;
49392;SDS011;35268;42.642;23.308;2024-03-23T10:38:52;17.70;;;7.43;;
49392;SDS011;35268;42.642;23.308;2024-03-23T10:41:19;17.02;;;7.13;;
49392;SDS011;35268;42.642;23.308;2024-03-23T10:43:45;16.98;;;7.38;;
49392;SDS011;35268;42.642;23.308;2024-03-23T10:46:11;16.00;;;7.03;;
49392;SDS011;35268;42.642;23.308;2024-03-23T10:48:37;21.27;;;7.55;;
49392;SDS011;35268;42.642;23.308;2024-03-23T10:51:03;16.27;;;6.22;;
49392;SDS011;35268;42.642;23.308;2024-03-23T10:53:30;14.52;;;6.43;;
49392;SDS011;35268;42.642;23.308;2024-03-23T10:55:58;12.20;;;6.22;;
49392;SDS011;35268;42.642;23.308;2024-03-23T10:58:26;16.88;;;6.07;;
49392;SDS011;35268;42.642;23.308;2024-03-23T11:00:55;12.38;;;5.80;;
49392;SDS011;35268;42.642;23.308;2024-03-23T11:03:30;13.38;;;6.70;;
49392;SDS011;35268;42.642;23.308;2024-03-23T11:06:00;12.90;;;6.47;;
49392;SDS011;35268;42.642;23.308;2024-03-23T11:08:36;13.75;;;5.43;;
49392;SDS011;35268;42.642;23.308;2024-03-23T11:13:48;9.90;;;5.73;;
49392;SDS011;35268;42.642;23.308;2024-03-23T11:16:27;12.68;;;6.57;;
49392;SDS011;35268;42.642;23.308;2024-03-23T11:22:03;10.07;;;5.38;;
49392;SDS011;35268;42.642;23.308;2024-03-23T11:24:30;11.85;;;5.57;;
49392;SDS011;35268;42.642;23.308;2024-03-23T11:26:56;11.48;;;5.47;;
49392;SDS011;35268;42.642;23.308;2024-03-23T11:29:25;11.25;;;6.75;;
49392;SDS011;35268;42.642;23.308;2024-03-23T11:31:51;14.93;;;5.97;;
49392;SDS011;35268;42.642;23.308;2024-03-23T11:34:18;13.15;;;5.63;;
49392;SDS011;35268;42.642;23.308;2024-03-23T11:36:46;18.38;;;6.45;;
49392;SDS011;35268;42.642;23.308;2024-03-23T11:39:15;11.02;;;4.90;;
49392;SDS011;35268;42.642;23.308;2024-03-23T11:41:52;12.30;;;5.55;;
49392;SDS011;35268;42.642;23.308;2024-03-23T11:44:19;10.48;;;5.53;;
49392;SDS011;35268;42.642;23.308;2024-03-23T11:46:47;11.57;;;4.80;;
49392;SDS011;35268;42.642;23.308;2024-03-23T11:49:26;10.02;;;4.88;;
49392;SDS011;35268;42.642;23.308;2024-03-23T11:51:53;13.00;;;4.68;;
49392;SDS011;35268;42.642;23.308;2024-03-23T11:54:23;12.93;;;4.78;;
49392;SDS011;35268;42.642;23.308;2024-03-23T11:57:00;10.43;;;4.93;;
49392;SDS011;35268;42.642;23.308;2024-03-23T11:59:33;11.75;;;4.93;;
49392;SDS011;35268;42.642;23.308;2024-03-23T12:01:58;9.90;;;5.30;;
49392;SDS011;35268;42.642;23.308;2024-03-23T12:04:27;9.02;;;4.85;;
49392;SDS011;35268;42.642;23.308;2024-03-23T12:09:43;13.57;;;4.50;;
49392;SDS011;35268;42.642;23.308;2024-03-23T12:12:15;11.05;;;4.20;;
49392;SDS011;35268;42.642;23.308;2024-03-23T12:14:45;10.38;;;5.18;;
49392;SDS011;35268;42.642;23.308;2024-03-23T12:17:26;9.98;;;4.03;;
49392;SDS011;35268;42.642;23.308;2024-03-23T12:19:51;8.63;;;4.22;;
49392;SDS011;35268;42.642;23.308;2024-03-23T12:22:20;12.20;;;5.43;;
49392;SDS011;35268;42.642;23.308;2024-03-23T12:24:46;19.05;;;5.15;;
49392;SDS011;35268;42.642;23.308;2024-03-23T12:27:11;11.98;;;4.53;;
49392;SDS011;35268;42.642;23.308;2024-03-23T12:29:37;16.67;;;6.18;;
49392;SDS011;35268;42.642;23.308;2024-03-23T12:32:04;7.95;;;3.80;;
49392;SDS011;35268;42.642;23.308;2024-03-23T12:34:30;8.82;;;3.63;;
49392;SDS011;35268;42.642;23.308;2024-03-23T12:36:56;8.50;;;3.88;;
49392;SDS011;35268;42.642;23.308;2024-03-23T12:39:21;7.00;;;3.35;;
49392;SDS011;35268;42.642;23.308;2024-03-23T12:41:47;6.65;;;2.70;;
49392;SDS011;35268;42.642;23.308;2024-03-23T12:44:13;9.57;;;2.95;;
49392;SDS011;35268;42.642;23.308;2024-03-23T12:46:40;12.32;;;3.03;;
49392;SDS011;35268;42.642;23.308;2024-03-23T12:49:09;6.47;;;2.97;;
49392;SDS011;35268;42.642;23.308;2024-03-23T12:51:35;7.35;;;2.72;;
49392;SDS011;35268;42.642;23.308;2024-03-23T12:54:01;12.20;;;2.70;;
49392;SDS011;35268;42.642;23.308;2024-03-23T12:56:26;5.90;;;2.58;;
49392;SDS011;35268;42.642;23.308;2024-03-23T12:58:55;11.95;;;3.05;;
49392;SDS011;35268;42.642;23.308;2024-03-23T13:01:22;3.80;;;2.17;;
49392;SDS011;35268;42.642;23.308;2024-03-23T13:03:51;5.53;;;2.78;;
49392;SDS011;35268;42.642;23.308;2024-03-23T13:06:18;5.00;;;2.08;;
49392;SDS011;35268;42.642;23.308;2024-03-23T13:08:44;5.43;;;2.10;;
49392;SDS011;35268;42.642;23.308;2024-03-23T13:11:10;4.15;;;2.03;;
49392;SDS011;35268;42.642;23.308;2024-03-23T13:13:36;4.20;;;1.58;;
49392;SDS011;35268;42.642;23.308;2024-03-23T13:16:03;4.45;;;2.15;;
49392;SDS011;35268;42.642;23.308;2024-03-23T13:18:29;4.05;;;1.70;;
49392;SDS011;35268;42.642;23.308;2024-03-23T13:20:55;4.82;;;1.70;;
49392;SDS011;35268;42.642;23.308;2024-03-23T13:23:21;2.90;;;1.20;;
49392;SDS011;35268;42.642;23.308;2024-03-23T13:25:52;5.13;;;0.85;;
49392;SDS011;35268;42.642;23.308;2024-03-23T13:28:22;8.68;;;1.05;;
49392;SDS011;35268;42.642;23.308;2024-03-23T13:30:51;2.17;;;1.05;;
49392;SDS011;35268;42.642;23.308;2024-03-23T13:33:17;2.78;;;1.02;;
49392;SDS011;35268;42.642;23.308;2024-03-23T13:35:48;2.20;;;1.17;;
49392;SDS011;35268;42.642;23.308;2024-03-23T13:38:17;3.60;;;1.08;;
49392;SDS011;35268;42.642;23.308;2024-03-23T13:40:50;2.20;;;0.93;;
49392;SDS011;35268;42.642;23.308;2024-03-23T13:43:18;3.03;;;1.30;;
49392;SDS011;35268;42.642;23.308;2024-03-23T13:45:44;1.80;;;1.00;;
49392;SDS011;35268;42.642;23.308;2024-03-23T13:48:11;2.63;;;1.20;;
49392;SDS011;35268;42.642;23.308;2024-03-23T13:50:37;3.53;;;0.95;;
49392;SDS011;35268;42.642;23.308;2024-03-23T13:53:02;1.40;;;0.82;;
49392;SDS011;35268;42.642;23.308;2024-03-23T13:55:28;3.00;;;1.30;;
49392;SDS011;35268;42.642;23.308;2024-03-23T13:57:53;2.38;;;1.10;;
49392;SDS011;35268;42.642;23.308;2024-03-23T14:00:19;1.75;;;1.02;;
49392;SDS011;35268;42.642;23.308;2024-03-23T14:02:45;3.53;;;1.08;;
49392;SDS011;35268;42.642;23.308;2024-03-23T14:05:11;4.47;;;1.30;;
49392;SDS011;35268;42.642;23.308;2024-03-23T14:07:36;3.47;;;1.00;;
49392;SDS011;35268;42.642;23.308;2024-03-23T14:10:03;5.13;;;1.17;;
49392;SDS011;35268;42.642;23.308;2024-03-23T14:12:31;2.17;;;0.98;;
49392;SDS011;35268;42.642;23.308;2024-03-23T14:14:57;2.05;;;0.80;;
49392;SDS011;35268;42.642;23.308;2024-03-23T14:17:22;2.80;;;1.23;;
49392;SDS011;35268;42.642;23.308;2024-03-23T14:19:48;1.80;;;1.00;;
49392;SDS011;35268;42.642;23.308;2024-03-23T14:22:15;3.35;;;1.02;;
49392;SDS011;35268;42.642;23.308;2024-03-23T14:24:44;2.75;;;1.00;;
49392;SDS011;35268;42.642;23.308;2024-03-23T14:27:09;5.22;;;1.20;;
49392;SDS011;35268;42.642;23.308;2024-03-23T14:29:35;5.35;;;1.60;;
49392;SDS011;35268;42.642;23.308;2024-03-23T14:32:00;5.85;;;1.25;;
49392;SDS011;35268;42.642;23.308;2024-03-23T14:34:26;4.80;;;1.05;;
49392;SDS011;35268;42.642;23.308;2024-03-23T14:36:53;2.20;;;0.95;;
49392;SDS011;35268;42.642;23.308;2024-03-23T14:39:22;5.88;;;1.48;;
49392;SDS011;35268;42.642;23.308;2024-03-23T14:41:50;3.28;;;1.23;;
49392;SDS011;35268;42.642;23.308;2024-03-23T14:44:16;2.67;;;1.33;;
49392;SDS011;35268;42.642;23.308;2024-03-23T14:46:41;5.80;;;1.17;;
49392;SDS011;35268;42.642;23.308;2024-03-23T14:49:08;5.10;;;0.90;;
49392;SDS011;35268;42.642;23.308;2024-03-23T14:51:33;2.47;;;1.38;;
49392;SDS011;35268;42.642;23.308;2024-03-23T14:53:59;2.75;;;1.65;;
49392;SDS011;35268;42.642;23.308;2024-03-23T14:56:24;6.25;;;1.25;;
49392;SDS011;35268;42.642;23.308;2024-03-23T14:58:53;3.47;;;1.33;;
49392;SDS011;35268;42.642;23.308;2024-03-23T15:01:20;4.30;;;1.30;;
49392;SDS011;35268;42.642;23.308;2024-03-23T15:03:46;4.05;;;1.17;;
49392;SDS011;35268;42.642;23.308;2024-03-23T15:06:12;4.50;;;1.30;;
49392;SDS011;35268;42.642;23.308;2024-03-23T15:08:38;3.72;;;1.00;;
49392;SDS011;35268;42.642;23.308;2024-03-23T15:11:06;3.03;;;1.20;;
49392;SDS011;35268;42.642;23.308;2024-03-23T15:13:32;4.55;;;1.13;;
49392;SDS011;35268;42.642;23.308;2024-03-23T15:15:58;1.50;;;1.00;;
49392;SDS011;35268;42.642;23.308;2024-03-23T15:18:24;3.97;;;1.05;;
49392;SDS011;35268;42.642;23.308;2024-03-23T15:20:56;6.68;;;1.25;;